Alton, Virginia
Current Conditions -  °F | °C
As of 10:15 AM on Wednesday 26 Nov 2014 (Local Time) from KW78 Reporting Station
Overcast Overcast  
Wind Chill: 37°   Ceiling: 900
Heat Index: 41°   Visibility: 10mi
Dew Point: 40°   Wind: 7mph
Humidity: 94%   Direction: 40°NE
Pressure: 29.95"   Gusts: 18mph
Location:  36.57°N, 79°W
Report Text: KW78 261515Z AUTO 04006G16KT 360V070 10SM OVC009 05/04 A2995 RMK AO1 P0001 T00520043
Loading
Personal Weather Stations






























Interactive Weather Map New forecast layout! Learn more

10-Day Weather Forecast

Advertisements
Track Severe Weather on mobile